Time;durP1;ratioP1;P1;durP2;ratioP2;P2;SDS_P1;SDS_P2;PMS_P1;PMS_P2;Temp;Humidity;BMP_temperature;BMP_pressure;BME280_temperature;BME280_humidity;BME280_pressure;Samples;Min_cycle;Max_cycle;Signal;HPM_P1;HPM_P2
2022/12/04 00:01:11;;;;;;;37.30;20.65;;;0.70;99.90;;;;;;6208258;23;20490;-81
2022/12/04 00:03:38;;;;;;;37.95;19.48;;;0.70;99.90;;;;;;6181754;23;20040;-81
2022/12/04 00:06:11;;;;;;;36.45;17.90;;;0.70;99.90;;;;;;6180899;23;20424;-81
2022/12/04 00:08:37;;;;;;;41.75;21.05;;;0.70;99.90;;;;;;6184427;23;20013;-83
2022/12/04 00:11:05;;;;;;;37.80;20.42;;;0.60;99.90;;;;;;6206616;23;20016;-81
2022/12/04 00:13:32;;;;;;;36.78;19.20;;;0.70;99.90;;;;;;6205969;23;20023;-83
2022/12/04 00:15:58;;;;;;;37.10;18.58;;;0.70;99.90;;;;;;6183287;23;20336;-82
2022/12/04 00:18:24;;;;;;;40.15;20.40;;;0.60;99.90;;;;;;6197379;23;20522;-83
2022/12/04 00:20:50;;;;;;;35.83;19.23;;;0.70;99.90;;;;;;6185237;23;20043;-82
2022/12/04 00:23:16;;;;;;;34.10;18.17;;;0.60;99.90;;;;;;6160280;23;20441;-82
2022/12/04 00:25:42;;;;;;;38.30;20.25;;;0.60;99.90;;;;;;6159281;23;20070;-81
2022/12/04 00:28:08;;;;;;;37.58;19.38;;;0.60;99.90;;;;;;6157835;23;20035;-81
2022/12/04 00:34:15;;;;;;;40.88;21.50;;;0.70;99.90;;;;;;6224040;23;20011;-81
2022/12/04 00:36:41;;;;;;;38.47;20.35;;;0.60;99.90;;;;;;6209368;23;20008;-80
2022/12/04 00:39:06;;;;;;;41.72;21.15;;;0.70;99.90;;;;;;6203326;23;20020;-83
2022/12/04 00:41:33;;;;;;;40.10;21.17;;;0.60;99.90;;;;;;6155314;23;20048;-80
2022/12/04 00:44:00;;;;;;;40.65;21.00;;;0.60;99.90;;;;;;6205695;23;20025;-80
2022/12/04 00:46:26;;;;;;;40.85;21.45;;;0.60;99.90;;;;;;6180299;23;20483;-82
2022/12/04 00:48:53;;;;;;;41.72;21.45;;;0.50;99.90;;;;;;6180682;23;20027;-79
2022/12/04 00:51:21;;;;;;;40.65;20.20;;;0.60;99.90;;;;;;6179567;23;20314;-82
2022/12/04 00:53:48;;;;;;;40.80;20.90;;;0.60;99.90;;;;;;6177291;23;20086;-82
2022/12/04 00:56:23;;;;;;;37.70;21.42;;;0.60;99.90;;;;;;6179735;23;20079;-81
2022/12/04 00:58:54;;;;;;;42.83;22.58;;;0.50;99.90;;;;;;6207706;23;20336;-83
2022/12/04 01:01:21;;;;;;;40.95;21.58;;;0.40;99.90;;;;;;6182354;23;20099;-81
2022/12/04 01:03:48;;;;;;;43.35;22.25;;;0.40;99.90;;;;;;6156184;23;20009;-80
2022/12/04 01:06:26;;;;;;;45.30;22.17;;;0.30;99.90;;;;;;6155407;23;20012;-79
2022/12/04 01:08:53;;;;;;;40.05;20.90;;;0.20;99.90;;;;;;6153574;23;20107;-81
2022/12/04 01:11:20;;;;;;;42.38;21.67;;;0.20;99.90;;;;;;6177849;23;20083;-82
2022/12/04 01:13:46;;;;;;;44.60;22.90;;;0.20;99.90;;;;;;6156362;23;20024;-82
2022/12/04 01:16:20;;;;;;;45.78;24.00;;;0.10;99.90;;;;;;6179666;23;20017;-83
2022/12/04 01:18:47;;;;;;;43.58;22.10;;;0.00;99.90;;;;;;6156633;23;20099;-82
2022/12/04 01:21:13;;;;;;;48.45;22.65;;;0.00;99.90;;;;;;6158554;23;20021;-83
2022/12/04 01:23:39;;;;;;;45.55;23.17;;;0.00;99.90;;;;;;6154851;23;20023;-82
2022/12/04 01:26:04;;;;;;;44.97;21.25;;;0.00;99.90;;;;;;6153252;23;20075;-82
2022/12/04 01:28:30;;;;;;;48.65;22.92;;;-0.10;99.90;;;;;;6154726;23;20458;-83
2022/12/04 01:31:05;;;;;;;49.20;24.50;;;-0.10;99.90;;;;;;6156096;23;20027;-83
2022/12/04 01:33:32;;;;;;;45.55;23.48;;;-0.20;99.90;;;;;;6153820;23;20012;-80
2022/12/04 01:36:00;;;;;;;46.85;23.77;;;-0.20;99.90;;;;;;6179798;23;20098;-81
2022/12/04 01:38:28;;;;;;;49.53;24.00;;;-0.10;99.90;;;;;;6179135;23;20091;-81
2022/12/04 01:40:56;;;;;;;47.17;22.95;;;-0.10;99.90;;;;;;6154022;23;20052;-82
2022/12/04 01:43:23;;;;;;;48.88;23.75;;;-0.10;99.90;;;;;;6182132;23;20075;-81
2022/12/04 01:45:53;;;;;;;47.30;24.45;;;0.00;99.90;;;;;;6160433;23;20023;-83
2022/12/04 01:48:31;;;;;;;50.22;27.17;;;0.00;99.90;;;;;;6158617;23;20020;-81
2022/12/04 01:51:03;;;;;;;48.78;24.42;;;0.00;99.90;;;;;;6155464;23;20103;-82
2022/12/04 01:53:29;;;;;;;50.83;25.45;;;0.00;99.90;;;;;;6161488;23;20115;-82
2022/12/04 01:55:55;;;;;;;43.13;22.17;;;0.00;99.90;;;;;;6163291;23;20027;-82
2022/12/04 01:58:27;;;;;;;46.20;22.98;;;0.10;99.90;;;;;;6188232;23;20012;-80
2022/12/04 02:04:35;;;;;;;40.95;19.27;;;0.10;99.90;;;;;;6220658;23;20844;-82
2022/12/04 02:07:01;;;;;;;47.28;24.65;;;0.20;99.90;;;;;;6223141;23;20009;-80
2022/12/04 02:09:30;;;;;;;44.97;22.60;;;0.10;99.90;;;;;;6205965;23;20017;-81
2022/12/04 02:12:27;;;;;;;44.45;23.55;;;0.20;99.90;;;;;;6233597;23;20100;-80
2022/12/04 02:15:15;;;;;;;52.58;25.40;;;0.10;99.90;;;;;;6175678;23;20051;-81
2022/12/04 02:17:50;;;;;;;41.25;21.13;;;0.10;99.90;;;;;;6158744;23;20416;-81
2022/12/04 02:20:24;;;;;;;46.60;23.05;;;0.10;99.90;;;;;;6202252;23;20332;-81
2022/12/04 02:23:28;;;;;;;52.05;23.70;;;0.20;99.90;;;;;;6179387;23;20016;-83
2022/12/04 02:26:28;;;;;;;48.95;26.33;;;0.20;99.90;;;;;;6206930;23;20163;-80
2022/12/04 02:29:02;;;;;;;49.13;23.65;;;0.10;99.90;;;;;;6205753;23;20099;-82
2022/12/04 02:31:33;;;;;;;53.90;26.85;;;0.20;99.90;;;;;;6181995;23;20099;-83
2022/12/04 02:34:24;;;;;;;50.92;25.45;;;0.10;99.90;;;;;;6181664;23;20030;-83
2022/12/04 02:37:19;;;;;;;52.53;26.98;;;0.10;99.90;;;;;;6209952;23;20016;-81
2022/12/04 02:39:57;;;;;;;49.47;25.67;;;0.10;99.90;;;;;;6176959;23;20100;-82
2022/12/04 02:42:26;;;;;;;50.83;24.83;;;0.10;99.90;;;;;;6209668;23;20036;-83
2022/12/04 02:44:57;;;;;;;50.42;26.42;;;0.10;99.90;;;;;;6183602;23;20019;-81
2022/12/04 02:47:25;;;;;;;52.22;26.92;;;0.20;99.90;;;;;;6186210;23;20012;-83
2022/12/04 02:49:58;;;;;;;55.33;27.90;;;0.10;99.90;;;;;;6211496;23;20017;-83
2022/12/04 02:52:35;;;;;;;51.25;27.05;;;0.10;99.90;;;;;;6211102;23;20054;-81
2022/12/04 02:55:15;;;;;;;56.05;29.27;;;0.10;99.90;;;;;;6211311;23;20432;-84
2022/12/04 02:57:44;;;;;;;55.78;26.98;;;0.10;99.90;;;;;;6211778;23;20027;-83
2022/12/04 03:00:12;;;;;;;59.83;28.05;;;0.00;99.90;;;;;;6212300;23;20023;-84
2022/12/04 03:03:06;;;;;;;57.65;28.42;;;0.10;99.90;;;;;;6215119;23;20016;-84
2022/12/04 03:05:57;;;;;;;59.03;27.65;;;0.00;99.90;;;;;;6187120;23;20017;-82
2022/12/04 03:08:29;;;;;;;54.22;28.48;;;0.10;99.90;;;;;;6065353;23;20018;-81
2022/12/04 03:10:59;;;;;;;56.60;28.05;;;0.00;99.90;;;;;;6066616;23;20117;-82
2022/12/04 03:13:46;;;;;;;58.72;29.33;;;0.00;99.90;;;;;;6064685;23;20018;-82
2022/12/04 03:16:21;;;;;;;56.60;29.52;;;0.10;99.90;;;;;;6066994;23;20033;-85
2022/12/04 03:19:00;;;;;;;64.72;31.42;;;0.10;99.90;;;;;;6089365;23;20038;-80
2022/12/04 03:21:31;;;;;;;62.85;32.25;;;0.00;99.90;;;;;;6088375;23;20218;-83
2022/12/04 03:24:20;;;;;;;62.72;32.50;;;0.00;99.90;;;;;;6041582;23;20161;-83
2022/12/04 03:26:49;;;;;;;62.58;32.38;;;0.00;99.90;;;;;;6043539;23;20021;-83
2022/12/04 03:29:26;;;;;;;60.15;31.58;;;0.00;99.90;;;;;;6095377;23;20021;-83
2022/12/04 03:35:48;;;;;;;60.10;30.23;;;0.10;99.90;;;;;;6099615;23;20041;-81
2022/12/04 03:38:16;;;;;;;63.53;32.25;;;0.10;99.90;;;;;;6071470;23;20015;-84
2022/12/04 03:41:03;;;;;;;63.17;31.73;;;0.00;99.90;;;;;;6046550;23;20146;-82
2022/12/04 03:43:58;;;;;;;62.67;33.35;;;0.10;99.90;;;;;;6089408;23;20011;-80
2022/12/04 03:47:04;;;;;;;60.40;31.35;;;-0.10;99.90;;;;;;6169616;23;20345;-82
2022/12/04 03:49:50;;;;;;;66.85;32.75;;;0.00;99.90;;;;;;6184838;23;20042;-83
2022/12/04 03:52:31;;;;;;;59.97;31.85;;;-0.10;99.90;;;;;;6186973;23;20017;-85
2022/12/04 03:55:07;;;;;;;63.25;31.88;;;-0.10;99.90;;;;;;6161964;23;20518;-82
2022/12/04 03:57:38;;;;;;;62.42;31.30;;;-0.10;99.90;;;;;;6187109;23;20016;-81
2022/12/04 04:00:07;;;;;;;69.43;35.30;;;-0.10;99.90;;;;;;6187689;23;20023;-83
2022/12/04 04:06:20;;;;;;;63.42;33.25;;;0.00;99.90;;;;;;6215462;23;20015;-84
2022/12/04 04:08:51;;;;;;;65.60;33.55;;;0.00;99.90;;;;;;6185796;23;20040;-82
2022/12/04 04:11:27;;;;;;;67.18;33.97;;;-0.10;99.90;;;;;;6212746;23;20025;-85
2022/12/04 04:26:14;;;;;;;66.75;33.90;;;0.00;99.90;;;;;;6215876;23;20428;-80
2022/12/04 04:28:41;;;;;;;66.63;35.03;;;-0.10;99.90;;;;;;6191875;23;20062;-84
2022/12/04 04:31:32;;;;;;;67.15;34.88;;;-0.20;99.90;;;;;;6217323;23;20386;-82
2022/12/04 04:34:22;;;;;;;68.10;35.83;;;-0.10;99.90;;;;;;6192800;23;20016;-84
2022/12/04 04:37:26;;;;;;;74.55;35.70;;;-0.20;99.90;;;;;;6191578;23;20383;-81
2022/12/04 04:40:31;;;;;;;69.32;34.97;;;-0.10;99.90;;;;;;6192704;23;20012;-82
2022/12/04 04:43:27;;;;;;;71.10;34.00;;;-0.20;99.90;;;;;;6191990;23;20011;-83
2022/12/04 04:46:01;;;;;;;;;;;-0.20;99.90;;;;;;6193094;23;20016;-83
2022/12/04 04:48:33;;;;;;;61.38;30.27;;;-0.10;99.90;;;;;;6194295;23;20304;-83
2022/12/04 04:51:01;;;;;;;69.38;35.67;;;-0.20;99.90;;;;;;6218997;23;20051;-82
2022/12/04 04:53:35;;;;;;;67.13;33.60;;;-0.10;99.90;;;;;;6204019;23;20020;-82
2022/12/04 04:56:03;;;;;;;64.53;34.03;;;-0.20;99.90;;;;;;6201227;23;20122;-84
2022/12/04 04:58:28;;;;;;;70.13;37.38;;;-0.10;99.90;;;;;;6223680;23;20012;-81
2022/12/04 05:05:22;;;;;;;69.30;34.53;;;-0.10;99.90;;;;;;6246375;23;20077;-79
2022/12/04 05:07:47;;;;;;;62.67;32.78;;;-0.20;99.90;;;;;;6225644;23;20019;-83
2022/12/04 05:10:13;;;;;;;69.65;34.42;;;-0.10;99.90;;;;;;6198167;23;20028;-81
2022/12/04 05:12:39;;;;;;;67.50;34.90;;;0.00;99.90;;;;;;6192059;23;20016;-82
2022/12/04 05:15:05;;;;;;;66.30;34.42;;;-0.10;99.90;;;;;;6217228;23;20020;-82
2022/12/04 05:17:33;;;;;;;73.88;36.08;;;-0.20;99.90;;;;;;6245193;23;20026;-81
2022/12/04 05:19:58;;;;;;;66.72;33.38;;;-0.10;99.90;;;;;;6210670;23;20023;-82
2022/12/04 05:22:44;;;;;;;73.32;35.88;;;0.00;99.90;;;;;;6186496;23;20024;-84
2022/12/04 05:25:10;;;;;;;66.72;34.65;;;-0.10;99.90;;;;;;6186201;23;20008;-83
2022/12/04 05:27:36;;;;;;;67.15;33.50;;;0.00;99.90;;;;;;6186570;23;20057;-82
2022/12/04 05:30:02;;;;;;;62.10;31.15;;;-0.20;99.90;;;;;;6184268;23;20097;-83
2022/12/04 05:32:29;;;;;;;71.68;37.22;;;-0.10;99.90;;;;;;6183593;23;20016;-83
2022/12/04 05:34:55;;;;;;;72.55;36.95;;;-0.10;99.90;;;;;;6183371;23;20099;-82
2022/12/04 05:37:22;;;;;;;69.22;34.03;;;-0.10;99.90;;;;;;6208218;23;20122;-82
2022/12/04 05:39:47;;;;;;;70.38;36.67;;;-0.10;99.90;;;;;;6209198;23;20048;-80
2022/12/04 05:42:14;;;;;;;60.20;31.17;;;0.10;99.90;;;;;;6183924;23;20099;-81
2022/12/04 05:44:41;;;;;;;58.15;30.85;;;0.00;99.90;;;;;;6185640;23;20013;-81
2022/12/04 05:47:07;;;;;;;67.60;34.40;;;0.10;99.90;;;;;;6186175;23;20048;-83
2022/12/04 05:49:33;;;;;;;71.32;36.70;;;0.00;99.90;;;;;;6211727;23;20032;-83
2022/12/04 05:52:01;;;;;;;69.30;34.63;;;0.10;99.90;;;;;;6184824;23;20043;-81
2022/12/04 05:54:26;;;;;;;67.32;34.28;;;0.10;99.90;;;;;;6210097;23;20027;-81
2022/12/04 05:56:52;;;;;;;67.00;33.13;;;0.10;99.90;;;;;;6183275;23;20008;-81
2022/12/04 05:59:18;;;;;;;68.40;32.83;;;0.00;99.90;;;;;;6208457;23;20032;-81
2022/12/04 06:01:44;;;;;;;67.95;35.42;;;0.10;99.90;;;;;;6183279;23;20016;-80
2022/12/04 06:04:10;;;;;;;67.75;33.60;;;0.20;99.90;;;;;;6208224;23;20091;-83
2022/12/04 06:06:37;;;;;;;67.75;34.50;;;0.10;99.90;;;;;;6208627;23;20020;-82
2022/12/04 06:09:04;;;;;;;70.45;38.15;;;0.10;99.90;;;;;;6182686;23;20433;-81
2022/12/04 06:11:38;;;;;;;68.82;35.53;;;0.00;99.90;;;;;;6208271;23;20017;-80
2022/12/04 06:14:06;;;;;;;69.07;35.53;;;0.20;99.90;;;;;;6181479;23;20123;-82
2022/12/04 06:16:41;;;;;;;66.90;34.33;;;0.10;99.90;;;;;;6182729;23;20027;-83
2022/12/04 06:19:10;;;;;;;66.70;34.45;;;0.00;99.90;;;;;;6206548;23;20021;-82
2022/12/04 06:21:38;;;;;;;66.75;32.88;;;0.10;99.90;;;;;;6208343;23;20024;-83
2022/12/04 06:24:05;;;;;;;68.80;35.22;;;0.10;99.90;;;;;;6207996;23;20009;-81
2022/12/04 06:26:31;;;;;;;68.88;40.47;;;0.10;99.90;;;;;;6209623;23;20444;-84
2022/12/04 06:28:58;;;;;;;68.30;35.42;;;0.10;99.90;;;;;;6212323;23;20016;-82
2022/12/04 06:35:35;;;;;;;67.13;32.95;;;0.20;99.90;;;;;;6214302;23;20031;-82
2022/12/04 06:38:01;;;;;;;65.97;35.42;;;0.20;99.90;;;;;;6215129;23;20328;-81
2022/12/04 06:40:26;;;;;;;62.63;32.92;;;0.20;99.90;;;;;;6211898;23;20019;-82
2022/12/04 06:42:52;;;;;;;68.80;34.13;;;0.10;99.90;;;;;;6209534;23;20009;-81
2022/12/04 06:45:19;;;;;;;59.75;31.48;;;0.30;99.90;;;;;;6207872;23;20126;-82
2022/12/04 06:47:45;;;;;;;68.00;32.78;;;0.30;99.90;;;;;;6210474;23;20328;-82
2022/12/04 06:50:11;;;;;;;60.00;30.92;;;0.40;99.90;;;;;;6210147;23;20016;-84
2022/12/04 06:52:37;;;;;;;70.30;35.95;;;0.20;99.90;;;;;;6210507;23;20029;-83
2022/12/04 06:55:02;;;;;;;64.03;31.60;;;0.30;99.90;;;;;;6209738;23;20436;-82
2022/12/04 06:57:28;;;;;;;72.13;34.00;;;0.40;99.90;;;;;;6208083;23;20021;-84
2022/12/04 06:59:54;;;;;;;67.88;35.17;;;0.40;99.90;;;;;;6209378;23;20336;-84
2022/12/04 07:02:21;;;;;;;65.50;33.42;;;0.30;99.90;;;;;;6210442;23;20015;-83
2022/12/04 07:04:47;;;;;;;67.45;32.40;;;0.30;99.90;;;;;;6184460;23;20008;-84
2022/12/04 07:07:13;;;;;;;66.47;33.58;;;0.40;99.90;;;;;;6208899;23;20332;-81
2022/12/04 07:09:38;;;;;;;65.18;33.95;;;0.20;99.90;;;;;;6183019;23;20515;-83
2022/12/04 07:12:05;;;;;;;65.97;31.00;;;0.20;99.90;;;;;;6185130;23;20043;-82
2022/12/04 07:14:31;;;;;;;68.55;35.22;;;0.30;99.90;;;;;;6209497;23;20013;-81
2022/12/04 07:16:57;;;;;;;69.25;35.78;;;0.30;99.90;;;;;;6210473;23;20024;-83
2022/12/04 07:19:23;;;;;;;67.63;34.50;;;0.20;99.90;;;;;;6213169;23;20012;-84
2022/12/04 07:21:48;;;;;;;69.07;34.75;;;0.40;99.90;;;;;;6190517;23;20078;-82
2022/12/04 07:24:15;;;;;;;68.97;37.33;;;0.30;99.90;;;;;;6190229;23;20040;-80
2022/12/04 07:26:41;;;;;;;70.40;35.10;;;0.20;99.90;;;;;;6212882;23;20016;-81
2022/12/04 07:29:09;;;;;;;67.47;32.72;;;0.20;99.90;;;;;;6250228;23;20078;-83
2022/12/04 07:31:35;;;;;;;64.30;33.72;;;0.30;99.90;;;;;;6188864;23;20048;-81
2022/12/04 07:34:00;;;;;;;70.38;35.63;;;0.30;99.90;;;;;;6188123;23;20016;-84
2022/12/04 07:36:26;;;;;;;74.00;34.90;;;0.50;99.90;;;;;;6240940;23;20019;-81
2022/12/04 07:38:54;;;;;;;68.97;34.30;;;0.30;99.90;;;;;;6214573;23;20020;-85
2022/12/04 07:41:20;;;;;;;66.47;33.90;;;0.30;99.90;;;;;;6214814;23;20050;-82
2022/12/04 07:43:45;;;;;;;67.80;32.85;;;0.40;99.90;;;;;;6215429;23;20020;-83
2022/12/04 07:46:18;;;;;;;66.45;34.42;;;0.30;99.90;;;;;;6215084;23;20012;-80
2022/12/04 07:48:44;;;;;;;69.68;33.78;;;0.40;99.90;;;;;;6215077;23;20066;-83
2022/12/04 07:51:13;;;;;;;64.35;32.63;;;0.30;99.90;;;;;;6213124;23;20016;-81
2022/12/04 07:53:42;;;;;;;68.20;33.72;;;0.40;99.90;;;;;;6189611;23;20012;-81
2022/12/04 07:56:10;;;;;;;62.60;32.88;;;0.40;99.90;;;;;;6190758;23;20047;-82
2022/12/04 07:58:36;;;;;;;69.40;34.95;;;0.60;99.90;;;;;;6216454;23;20019;-81
2022/12/04 08:01:11;;;;;;;70.25;34.88;;;0.60;99.90;;;;;;6191096;23;20316;-79
2022/12/04 08:03:42;;;;;;;72.78;34.65;;;0.50;99.90;;;;;;6192592;23;20450;-81
2022/12/04 08:06:08;;;;;;;68.22;33.55;;;0.60;99.90;;;;;;6191093;23;20051;-82
2022/12/04 08:08:35;;;;;;;71.47;34.85;;;0.60;99.90;;;;;;6214381;23;20450;-80
2022/12/04 08:11:05;;;;;;;74.80;34.65;;;0.50;99.90;;;;;;6190296;23;20099;-82
2022/12/04 08:13:31;;;;;;;70.28;35.28;;;0.40;99.90;;;;;;6188866;23;20108;-79
2022/12/04 08:16:00;;;;;;;75.55;39.55;;;0.40;99.90;;;;;;6216508;23;20103;-82
2022/12/04 08:19:04;;;;;;;72.97;36.20;;;0.60;99.90;;;;;;6216888;22;20024;-81
2022/12/04 08:21:30;;;;;;;71.85;38.80;;;0.40;99.90;;;;;;6183325;23;20900;-80
2022/12/04 08:23:57;;;;;;;68.75;34.47;;;0.60;99.90;;;;;;6180192;23;20044;-82
2022/12/04 08:26:26;;;;;;;68.90;34.45;;;0.90;99.90;;;;;;6182762;23;20024;-81
2022/12/04 08:28:53;;;;;;;70.57;34.25;;;0.60;99.90;;;;;;6157206;23;20013;-84
2022/12/04 08:31:22;;;;;;;68.57;33.97;;;0.60;99.90;;;;;;6156540;23;20293;-82
2022/12/04 08:33:49;;;;;;;66.63;33.90;;;0.80;99.90;;;;;;6181831;23;20479;-80
2022/12/04 08:36:18;;;;;;;65.28;33.13;;;0.80;99.90;;;;;;6208454;23;20084;-81
2022/12/04 08:38:44;;;;;;;71.00;33.78;;;0.60;99.90;;;;;;6208215;23;20027;-82
2022/12/04 08:41:12;;;;;;;64.90;34.03;;;0.60;99.90;;;;;;6158781;23;20021;-81
2022/12/04 08:43:38;;;;;;;65.47;33.92;;;0.70;99.90;;;;;;6185214;23;20104;-78
2022/12/04 08:46:10;;;;;;;66.65;33.90;;;0.90;99.90;;;;;;6183216;23;20015;-82
2022/12/04 08:48:36;;;;;;;71.25;34.22;;;0.90;99.90;;;;;;6183084;23;20091;-81
2022/12/04 08:51:07;;;;;;;67.70;33.97;;;0.90;99.90;;;;;;6184704;23;20016;-82
2022/12/04 08:53:35;;;;;;;66.47;32.42;;;0.80;99.90;;;;;;6157381;23;20505;-80
2022/12/04 08:56:01;;;;;;;64.18;34.30;;;0.70;99.90;;;;;;6157442;23;20031;-82
2022/12/04 08:58:27;;;;;;;60.63;33.70;;;0.80;99.90;;;;;;6185342;23;20019;-82
2022/12/04 09:00:53;;;;;;;60.92;33.00;;;1.00;99.90;;;;;;6184892;23;20036;-79
2022/12/04 09:03:20;;;;;;;62.55;32.45;;;1.00;99.90;;;;;;6182726;23;20016;-81
2022/12/04 09:05:46;;;;;;;63.33;34.17;;;0.90;99.90;;;;;;6182824;23;20100;-81
2022/12/04 09:08:14;;;;;;;61.80;31.15;;;1.00;99.90;;;;;;6210269;23;20104;-81
2022/12/04 09:10:41;;;;;;;56.72;29.58;;;1.10;99.90;;;;;;6182751;23;20012;-83
2022/12/04 09:13:07;;;;;;;57.38;32.30;;;1.10;99.90;;;;;;6182619;23;20021;-83
2022/12/04 09:15:37;;;;;;;62.10;32.50;;;1.10;99.90;;;;;;6206446;23;20061;-83
2022/12/04 09:18:03;;;;;;;54.97;30.55;;;1.20;99.90;;;;;;6156912;23;20024;-81
2022/12/04 09:20:28;;;;;;;56.22;30.40;;;1.20;99.90;;;;;;6182446;23;20016;-82
2022/12/04 09:22:54;;;;;;;52.03;29.17;;;1.10;99.90;;;;;;6183640;23;20025;-83
2022/12/04 09:25:20;;;;;;;47.20;27.40;;;1.30;99.90;;;;;;6158311;23;20835;-81
2022/12/04 09:27:45;;;;;;;54.22;29.13;;;1.20;99.90;;;;;;6157837;23;20404;-79
2022/12/04 09:30:12;;;;;;;52.22;28.17;;;1.30;99.90;;;;;;6156865;23;20020;-77
2022/12/04 09:32:38;;;;;;;53.45;30.02;;;1.30;99.90;;;;;;6160206;23;20100;-76
2022/12/04 09:35:05;;;;;;;56.90;29.58;;;1.40;99.90;;;;;;6156365;23;20017;-79
2022/12/04 09:37:37;;;;;;;53.92;29.85;;;1.30;99.90;;;;;;6157896;23;20020;-81
2022/12/04 09:40:04;;;;;;;53.08;29.92;;;1.50;99.90;;;;;;6157952;23;20026;-79
2022/12/04 09:42:54;;;;;;;51.17;31.50;;;1.40;99.90;;;;;;6184551;23;20012;-80
2022/12/04 09:45:23;;;;;;;49.70;27.33;;;1.40;99.90;;;;;;6159294;23;20023;-76
2022/12/04 09:47:58;;;;;;;48.53;26.92;;;1.40;99.90;;;;;;6212063;23;20329;-80
2022/12/04 09:50:41;;;;;;;45.50;27.52;;;1.60;99.90;;;;;;6183317;23;20039;-81
2022/12/04 09:53:41;;;;;;;46.83;26.95;;;1.70;99.90;;;;;;6182325;23;20078;-80
2022/12/04 09:56:12;;;;;;;46.38;25.63;;;1.80;99.90;;;;;;6036074;23;20019;-76
2022/12/04 09:59:17;;;;;;;42.95;22.80;;;1.70;99.90;;;;;;6059479;23;20022;-81
2022/12/04 10:01:52;;;;;;;43.30;24.92;;;1.70;99.90;;;;;;5929108;24;20020;-79
2022/12/04 10:04:19;;;;;;;41.40;24.85;;;1.90;99.90;;;;;;5974093;24;20108;-82
2022/12/04 10:07:09;;;;;;;41.00;23.95;;;1.80;99.90;;;;;;5952461;24;20016;-82
2022/12/04 10:09:44;;;;;;;42.78;24.17;;;1.90;99.90;;;;;;5950540;24;20114;-81
2022/12/04 10:12:20;;;;;;;43.35;24.58;;;1.90;99.90;;;;;;5975374;24;20043;-80
2022/12/04 10:15:03;;;;;;;41.78;22.88;;;1.90;99.90;;;;;;5972185;24;20103;-81
2022/12/04 10:17:37;;;;;;;42.53;25.02;;;1.90;99.90;;;;;;5948287;24;20024;-78
2022/12/04 10:20:09;;;;;;;46.55;24.27;;;1.90;99.90;;;;;;5972235;23;20035;-79
2022/12/04 10:23:01;;;;;;;46.35;24.08;;;1.90;99.90;;;;;;5946310;24;20083;-79
2022/12/04 10:25:29;;;;;;;41.38;23.70;;;2.00;99.90;;;;;;5924059;24;20083;-80
2022/12/04 10:28:40;;;;;;;41.15;24.23;;;2.00;99.90;;;;;;5948349;24;20020;-80
2022/12/04 10:31:12;;;;;;;37.92;22.58;;;1.90;99.90;;;;;;5926026;24;20445;-83
2022/12/04 10:33:50;;;;;;;45.75;24.13;;;2.00;99.90;;;;;;6018672;23;20899;-80
2022/12/04 10:36:19;;;;;;;33.25;19.42;;;2.00;99.90;;;;;;6043075;23;20051;-79
2022/12/04 10:38:57;;;;;;;40.50;21.58;;;2.10;99.90;;;;;;6182496;23;20529;-79
2022/12/04 10:41:44;;;;;;;37.40;21.90;;;2.00;99.90;;;;;;6211533;23;20020;-79
2022/12/04 10:44:18;;;;;;;37.03;21.70;;;2.10;99.90;;;;;;6242550;23;20012;-81
2022/12/04 10:46:43;;;;;;;35.40;19.05;;;2.10;99.90;;;;;;6214188;23;20407;-77
2022/12/04 10:49:35;;;;;;;37.40;20.92;;;2.10;99.90;;;;;;6188576;23;20012;-80
2022/12/04 10:52:01;;;;;;;39.97;20.63;;;2.10;99.90;;;;;;6215346;23;20389;-81
2022/12/04 10:54:48;;;;;;;36.38;20.30;;;2.10;99.90;;;;;;6213688;23;20016;-81
2022/12/04 10:57:14;;;;;;;31.58;18.23;;;2.20;99.90;;;;;;6215866;23;20034;-78
2022/12/04 10:59:53;;;;;;;34.78;20.52;;;2.20;99.90;;;;;;6217376;23;20016;-80
2022/12/04 11:02:43;;;;;;;35.13;18.52;;;2.20;99.90;;;;;;6221138;23;20043;-82
2022/12/04 11:05:24;;;;;;;31.77;18.48;;;2.30;99.90;;;;;;6194049;23;20031;-80
2022/12/04 11:07:50;;;;;;;31.90;19.88;;;2.30;99.90;;;;;;6192897;23;20016;-79
2022/12/04 11:10:40;;;;;;;29.45;17.27;;;2.20;99.90;;;;;;6216795;23;20013;-79
2022/12/04 11:13:17;;;;;;;34.75;20.95;;;2.30;99.90;;;;;;6193786;23;20123;-79
2022/12/04 11:15:45;;;;;;;29.17;18.08;;;2.30;99.90;;;;;;6221954;23;20057;-79
2022/12/04 11:18:45;;;;;;;26.92;16.35;;;2.30;99.90;;;;;;6196058;22;20016;-77
2022/12/04 11:21:26;;;;;;;30.83;17.48;;;2.30;99.90;;;;;;6192977;23;20439;-82
2022/12/04 11:23:54;;;;;;;28.13;16.92;;;2.30;99.90;;;;;;6190449;23;20008;-79
2022/12/04 11:26:37;;;;;;;28.40;15.75;;;2.30;99.90;;;;;;6220453;23;20019;-78
2022/12/04 11:29:04;;;;;;;26.38;15.70;;;2.30;99.90;;;;;;6217442;23;20008;-80
2022/12/04 11:31:31;;;;;;;25.98;15.73;;;2.40;99.90;;;;;;6216608;23;20087;-79
2022/12/04 11:33:59;;;;;;;25.95;16.05;;;2.30;99.90;;;;;;6217156;23;20016;-76
2022/12/04 11:36:39;;;;;;;28.65;15.65;;;2.40;99.90;;;;;;6191754;23;20016;-80
2022/12/04 11:39:09;;;;;;;28.83;16.83;;;2.30;99.90;;;;;;6243060;23;20054;-79
2022/12/04 11:41:35;;;;;;;29.00;16.65;;;2.40;99.90;;;;;;6192145;23;20368;-81
2022/12/04 11:44:01;;;;;;;25.00;15.73;;;2.40;99.90;;;;;;6217259;23;20035;-82
2022/12/04 11:46:30;;;;;;;27.00;16.17;;;2.30;99.90;;;;;;6216996;23;20059;-79
2022/12/04 11:48:56;;;;;;;24.85;15.23;;;2.30;99.90;;;;;;6217242;23;20020;-77
2022/12/04 11:51:47;;;;;;;26.70;15.93;;;2.30;99.90;;;;;;6245650;23;20016;-82
2022/12/04 11:54:34;;;;;;;26.00;14.98;;;2.30;99.90;;;;;;6068656;23;20439;-80
2022/12/04 11:57:06;;;;;;;24.13;14.05;;;2.40;99.90;;;;;;6069133;23;20669;-78
2022/12/04 12:00:01;;;;;;;27.58;16.85;;;2.30;99.90;;;;;;6065982;23;20059;-79
2022/12/04 12:02:39;;;;;;;26.33;16.33;;;2.30;99.90;;;;;;6067286;23;20022;-78
2022/12/04 12:05:35;;;;;;;30.35;17.65;;;2.30;99.90;;;;;;6067427;23;20014;-80
2022/12/04 12:08:28;;;;;;;28.20;17.00;;;2.30;99.90;;;;;;6066134;23;20015;-82
2022/12/04 12:11:24;;;;;;;26.90;16.05;;;2.30;99.90;;;;;;6065889;23;20042;-83
2022/12/04 12:14:07;;;;;;;22.88;13.23;;;2.30;99.90;;;;;;6066014;23;20046;-82
2022/12/04 12:17:09;;;;;;;26.17;16.50;;;2.40;99.90;;;;;;6063606;23;20136;-79
2022/12/04 12:20:11;;;;;;;27.40;15.75;;;2.40;99.90;;;;;;6063628;23;20101;-82
2022/12/04 12:23:06;;;;;;;25.92;16.00;;;2.40;99.90;;;;;;6087036;23;20026;-83
2022/12/04 12:25:56;;;;;;;25.60;16.07;;;2.40;99.90;;;;;;6028258;23;20277;-77
2022/12/04 12:28:50;;;;;;;28.35;17.58;;;2.40;99.90;;;;;;5980202;23;20050;-84
2022/12/04 12:31:27;;;;;;;31.48;16.92;;;2.40;99.90;;;;;;6016429;23;20018;-81
2022/12/04 12:37:42;;;;;;;27.05;17.67;;;2.40;99.90;;;;;;6085537;23;20420;-82
2022/12/04 12:40:35;;;;;;;28.60;17.63;;;2.40;99.90;;;;;;6036164;23;20076;-80
2022/12/04 12:43:10;;;;;;;32.85;17.70;;;2.40;99.90;;;;;;6086741;23;20054;-81
2022/12/04 12:45:54;;;;;;;29.38;17.42;;;2.40;99.90;;;;;;6086352;23;20014;-86
2022/12/04 12:48:29;;;;;;;30.83;18.27;;;2.40;99.90;;;;;;6063684;23;20109;-79
2022/12/04 12:51:06;;;;;;;26.40;16.15;;;2.40;99.90;;;;;;6064617;23;20022;-85
2022/12/04 12:53:37;;;;;;;30.52;18.23;;;2.50;99.90;;;;;;6062833;23;20022;-79
2022/12/04 12:56:05;;;;;;;29.38;18.10;;;2.40;99.90;;;;;;6088526;23;20053;-82
2022/12/04 12:58:42;;;;;;;29.55;17.60;;;2.40;99.90;;;;;;6068595;23;20410;-78
2022/12/04 13:01:20;;;;;;;29.63;18.75;;;2.40;99.90;;;;;;6066422;23;20048;-81
2022/12/04 13:04:13;;;;;;;28.85;17.88;;;2.50;99.90;;;;;;6179092;23;20151;-82
2022/12/04 13:06:42;;;;;;;30.40;17.73;;;2.60;99.90;;;;;;6037402;23;20018;-84
2022/12/04 13:09:16;;;;;;;30.50;17.88;;;2.50;99.90;;;;;;6083601;23;20554;-78
2022/12/04 13:11:46;;;;;;;32.92;18.85;;;2.50;99.90;;;;;;6061082;23;20061;-84
2022/12/04 13:14:13;;;;;;;30.02;18.20;;;2.50;99.90;;;;;;6038608;23;20026;-81
2022/12/04 13:17:13;;;;;;;32.35;18.15;;;2.50;99.90;;;;;;6061381;23;20037;-82
2022/12/04 13:19:50;;;;;;;29.50;17.45;;;2.60;99.90;;;;;;6057706;23;20018;-84
2022/12/04 13:22:32;;;;;;;30.17;18.08;;;2.50;99.90;;;;;;6055939;23;20081;-79
2022/12/04 13:25:37;;;;;;;31.85;18.95;;;2.60;99.90;;;;;;6007274;23;20029;-84
2022/12/04 13:28:11;;;;;;;30.80;18.50;;;2.50;99.90;;;;;;6030317;23;20095;-81
2022/12/04 13:30:50;;;;;;;32.60;18.85;;;2.50;99.90;;;;;;6008597;23;20027;-80
2022/12/04 13:36:59;;;;;;;33.47;19.23;;;2.60;99.90;;;;;;6039395;23;20182;-81
2022/12/04 13:39:49;;;;;;;33.70;19.63;;;2.60;99.90;;;;;;6036274;23;20095;-82
2022/12/04 13:42:22;;;;;;;37.88;20.55;;;2.70;99.90;;;;;;6059037;23;20022;-79
2022/12/04 13:45:02;;;;;;;34.65;20.38;;;2.70;99.90;;;;;;6182839;23;20016;-81
2022/12/04 13:47:31;;;;;;;36.20;20.40;;;2.70;99.90;;;;;;6183648;23;20067;-81
2022/12/04 13:50:19;;;;;;;37.83;20.50;;;2.70;99.90;;;;;;6158102;23;20025;-81